BAW330U EGLL-LFMN
Flight info
| Callsign | BAW330U |
|---|---|
| Flight time | 1h 20m |
| Altitude | 33000 |
| Route | MODMI M185 MID L612 BOGNA UL612 VEULE DCT KOTAP DCT KETEX DCT KOTIS DCT KUKOR DCT UTUVA DCT LERGA DCT LIQID DCT LATAM DCT TUNUR DCT NISAR |
| Aircraft | A320/M-SDE3FGHIRWY/LB1 |
Departure
| Time | 2026-05-04 13:35 |
|---|---|
| Airport | London Heathrow Airport (EGLL) |
Arrival
| Time | 2026-05-04 14:55 |
|---|---|
| Airport | Nice-Côte d'Azur Airport (LFMN) |
| Time | Latitude | Longitude | Altitude | Speed | Heading |
|---|---|---|---|---|---|
| 2026-05-04 12:47 | 51.47399 | -0.48757 | 86 ft | 0 kts | 180° |
| 2026-05-04 13:15 | 51.47400 | -0.48757 | 86 ft | 0 kts | 180° |
| 2026-05-04 13:20 | 51.47408 | -0.48757 | 86 ft | 4 kts | 180° |
| 2026-05-04 13:20 | 51.47435 | -0.48758 | 86 ft | 4 kts | 180° |
| 2026-05-04 13:20 | 51.47457 | -0.48758 | 86 ft | 4 kts | 178° |
| 2026-05-04 13:20 | 51.47480 | -0.48767 | 88 ft | 4 kts | 128° |
| 2026-05-04 13:21 | 51.47486 | -0.48801 | 87 ft | 4 kts | 90° |
| 2026-05-04 13:21 | 51.47486 | -0.48821 | 87 ft | 0 kts | 90° |
| 2026-05-04 13:26 | 51.47486 | -0.48770 | 87 ft | 8 kts | 90° |
| 2026-05-04 13:26 | 51.47487 | -0.48664 | 88 ft | 11 kts | 90° |
| 2026-05-04 13:26 | 51.47485 | -0.48530 | 88 ft | 13 kts | 98° |
| 2026-05-04 13:26 | 51.47407 | -0.48475 | 86 ft | 15 kts | 181° |
| 2026-05-04 13:27 | 51.47279 | -0.48475 | 86 ft | 20 kts | 180° |
| 2026-05-04 13:27 | 51.47131 | -0.48473 | 86 ft | 22 kts | 180° |
| 2026-05-04 13:27 | 51.46970 | -0.48471 | 88 ft | 24 kts | 180° |
| 2026-05-04 13:27 | 51.46796 | -0.48470 | 86 ft | 26 kts | 180° |
| 2026-05-04 13:28 | 51.46671 | -0.48454 | 88 ft | 13 kts | 153° |
| 2026-05-04 13:28 | 51.46652 | -0.48310 | 86 ft | 15 kts | 89° |
| 2026-05-04 13:28 | 51.46653 | -0.48120 | 86 ft | 19 kts | 90° |
| 2026-05-04 13:28 | 51.46654 | -0.47898 | 86 ft | 21 kts | 90° |
| 2026-05-04 13:29 | 51.46655 | -0.47644 | 86 ft | 23 kts | 89° |
| 2026-05-04 13:29 | 51.46657 | -0.47444 | 87 ft | 12 kts | 89° |
| 2026-05-04 13:29 | 51.46658 | -0.47323 | 88 ft | 18 kts | 90° |
| 2026-05-04 13:29 | 51.46657 | -0.47093 | 88 ft | 22 kts | 90° |
| 2026-05-04 13:30 | 51.46657 | -0.46846 | 89 ft | 23 kts | 89° |
| 2026-05-04 13:30 | 51.46658 | -0.46581 | 90 ft | 25 kts | 89° |
| 2026-05-04 13:30 | 51.46660 | -0.46303 | 90 ft | 26 kts | 90° |
| 2026-05-04 13:30 | 51.46661 | -0.46008 | 86 ft | 27 kts | 90° |
| 2026-05-04 13:31 | 51.46662 | -0.45694 | 86 ft | 28 kts | 89° |
| 2026-05-04 13:31 | 51.46662 | -0.45388 | 86 ft | 28 kts | 90° |
| 2026-05-04 13:31 | 51.46663 | -0.45068 | 86 ft | 29 kts | 89° |
| 2026-05-04 13:31 | 51.46665 | -0.44743 | 86 ft | 29 kts | 89° |
| 2026-05-04 13:32 | 51.46666 | -0.44422 | 86 ft | 27 kts | 89° |
| 2026-05-04 13:32 | 51.46666 | -0.44133 | 86 ft | 26 kts | 90° |
| 2026-05-04 13:32 | 51.46665 | -0.43904 | 86 ft | 18 kts | 90° |
| 2026-05-04 13:32 | 51.46619 | -0.43821 | 87 ft | 10 kts | 186° |
| 2026-05-04 13:33 | 51.46546 | -0.43832 | 85 ft | 9 kts | 184° |
| 2026-05-04 13:33 | 51.46498 | -0.43843 | 86 ft | 5 kts | 216° |
| 2026-05-04 13:33 | 51.46495 | -0.43863 | 87 ft | 0 kts | 264° |
| 2026-05-04 13:33 | 51.46494 | -0.43895 | 86 ft | 11 kts | 267° |
| 2026-05-04 13:34 | 51.46490 | -0.44353 | 87 ft | 74 kts | 270° |
| 2026-05-04 13:34 | 51.46489 | -0.45498 | 86 ft | 129 kts | 269° |
| 2026-05-04 13:34 | 51.46482 | -0.47176 | 102 ft | 169 kts | 270° |
| 2026-05-04 13:34 | 51.46487 | -0.49016 | 662 ft | 164 kts | 272° |
| 2026-05-04 13:35 | 51.46492 | -0.50882 | 1195 ft | 168 kts | 271° |
| 2026-05-04 13:35 | 51.45812 | -0.54691 | 1756 ft | 202 kts | 240° |
| 2026-05-04 13:35 | 51.45073 | -0.56734 | 1982 ft | 227 kts | 240° |
| 2026-05-04 13:36 | 51.44246 | -0.59036 | 2331 ft | 250 kts | 239° |
| 2026-05-04 13:36 | 51.43028 | -0.61111 | 2899 ft | 263 kts | 207° |
| 2026-05-04 13:36 | 51.41257 | -0.61719 | 3702 ft | 266 kts | 172° |
| 2026-05-04 13:36 | 51.39459 | -0.61004 | 4603 ft | 267 kts | 163° |
| 2026-05-04 13:37 | 51.37694 | -0.60077 | 5476 ft | 268 kts | 161° |
| 2026-05-04 13:37 | 51.35922 | -0.59077 | 6346 ft | 271 kts | 161° |
| 2026-05-04 13:37 | 51.34142 | -0.58056 | 7147 ft | 273 kts | 161° |
| 2026-05-04 13:37 | 51.32340 | -0.57027 | 7924 ft | 276 kts | 161° |
| 2026-05-04 13:38 | 51.30512 | -0.56027 | 8708 ft | 279 kts | 166° |
| 2026-05-04 13:38 | 51.28584 | -0.55610 | 9482 ft | 281 kts | 181° |
| 2026-05-04 13:38 | 51.26629 | -0.55882 | 10217 ft | 284 kts | 186° |
| 2026-05-04 13:38 | 51.24589 | -0.56290 | 10435 ft | 306 kts | 191° |
| 2026-05-04 13:39 | 51.22427 | -0.57004 | 10570 ft | 329 kts | 192° |
| 2026-05-04 13:39 | 51.20115 | -0.57764 | 10780 ft | 346 kts | 192° |
| 2026-05-04 13:39 | 51.17761 | -0.58528 | 11313 ft | 352 kts | 192° |
| 2026-05-04 13:39 | 51.15346 | -0.59305 | 11926 ft | 356 kts | 192° |
| 2026-05-04 13:40 | 51.12909 | -0.60086 | 12559 ft | 359 kts | 192° |
| 2026-05-04 13:40 | 51.10442 | -0.60868 | 13283 ft | 362 kts | 190° |
| 2026-05-04 13:40 | 51.07915 | -0.61180 | 13967 ft | 367 kts | 179° |
| 2026-05-04 13:40 | 51.05368 | -0.60696 | 14543 ft | 370 kts | 168° |
| 2026-05-04 13:41 | 51.02910 | -0.59432 | 15120 ft | 374 kts | 157° |
| 2026-05-04 13:41 | 51.00630 | -0.57426 | 15721 ft | 377 kts | 147° |
| 2026-05-04 13:41 | 50.98451 | -0.55084 | 16347 ft | 379 kts | 147° |
| 2026-05-04 13:42 | 50.94052 | -0.50380 | 17550 ft | 383 kts | 147° |
| 2026-05-04 13:42 | 50.91859 | -0.48042 | 18152 ft | 386 kts | 147° |
| 2026-05-04 13:42 | 50.89627 | -0.45668 | 18701 ft | 388 kts | 147° |
| 2026-05-04 13:42 | 50.87373 | -0.43279 | 19234 ft | 391 kts | 148° |
| 2026-05-04 13:43 | 50.85097 | -0.40870 | 19749 ft | 394 kts | 148° |
| 2026-05-04 13:43 | 50.82807 | -0.38452 | 20258 ft | 397 kts | 148° |
| 2026-05-04 13:43 | 50.80496 | -0.36016 | 20742 ft | 400 kts | 148° |
| 2026-05-04 13:43 | 50.78169 | -0.33565 | 21200 ft | 403 kts | 148° |
| 2026-05-04 13:44 | 50.75829 | -0.31100 | 21641 ft | 406 kts | 148° |
| 2026-05-04 13:44 | 50.73470 | -0.28614 | 22072 ft | 408 kts | 149° |
| 2026-05-04 13:44 | 50.71131 | -0.26151 | 22481 ft | 411 kts | 149° |
| 2026-05-04 13:44 | 50.68747 | -0.23641 | 22895 ft | 413 kts | 149° |
| 2026-05-04 13:45 | 50.66348 | -0.21121 | 23296 ft | 416 kts | 149° |
| 2026-05-04 13:45 | 50.63929 | -0.18586 | 23685 ft | 418 kts | 149° |
| 2026-05-04 13:45 | 50.61509 | -0.16057 | 24072 ft | 418 kts | 149° |
| 2026-05-04 13:45 | 50.59077 | -0.13518 | 24431 ft | 419 kts | 149° |
| 2026-05-04 13:46 | 50.56644 | -0.10974 | 24776 ft | 421 kts | 149° |
| 2026-05-04 13:46 | 50.54195 | -0.08415 | 25115 ft | 422 kts | 149° |
| 2026-05-04 13:46 | 50.51740 | -0.05859 | 25460 ft | 424 kts | 149° |
| 2026-05-04 13:46 | 50.49278 | -0.03297 | 25795 ft | 425 kts | 149° |
| 2026-05-04 13:47 | 50.46805 | -0.00726 | 26118 ft | 427 kts | 149° |
| 2026-05-04 13:47 | 50.44354 | 0.01820 | 26414 ft | 429 kts | 149° |
| 2026-05-04 13:47 | 50.41863 | 0.04406 | 26763 ft | 429 kts | 149° |
| 2026-05-04 13:47 | 50.39373 | 0.06985 | 27224 ft | 428 kts | 149° |
| 2026-05-04 13:48 | 50.36894 | 0.09550 | 27688 ft | 426 kts | 149° |
| 2026-05-04 13:48 | 50.34426 | 0.12104 | 28153 ft | 425 kts | 149° |
| 2026-05-04 13:48 | 50.31965 | 0.14644 | 28621 ft | 423 kts | 149° |
| 2026-05-04 13:48 | 50.29510 | 0.17171 | 29087 ft | 422 kts | 149° |
| 2026-05-04 13:49 | 50.27061 | 0.19686 | 29556 ft | 420 kts | 149° |
| 2026-05-04 13:49 | 50.24623 | 0.22186 | 30027 ft | 419 kts | 150° |
| 2026-05-04 13:49 | 50.22189 | 0.24681 | 30435 ft | 418 kts | 149° |
| 2026-05-04 13:49 | 50.19763 | 0.27168 | 30832 ft | 417 kts | 149° |
| 2026-05-04 13:50 | 50.13372 | 0.33729 | 31885 ft | 414 kts | 149° |
| 2026-05-04 13:50 | 50.09952 | 0.37244 | 32461 ft | 413 kts | 149° |
| 2026-05-04 13:50 | 50.07553 | 0.39711 | 32856 ft | 412 kts | 149° |
| 2026-05-04 13:50 | 50.05188 | 0.42136 | 32988 ft | 415 kts | 149° |
| 2026-05-04 13:51 | 50.00281 | 0.47146 | 32998 ft | 426 kts | 149° |
| 2026-05-04 13:51 | 49.95304 | 0.52219 | 33001 ft | 428 kts | 149° |
| 2026-05-04 13:52 | 49.87813 | 0.59821 | 33000 ft | 428 kts | 149° |
| 2026-05-04 13:53 | 49.82876 | 0.64914 | 33001 ft | 429 kts | 147° |
| 2026-05-04 13:53 | 49.78014 | 0.70321 | 32996 ft | 429 kts | 146° |
| 2026-05-04 13:54 | 49.70807 | 0.78455 | 33002 ft | 429 kts | 147° |
| 2026-05-04 13:55 | 49.63511 | 0.86485 | 33002 ft | 429 kts | 147° |
| 2026-05-04 13:55 | 49.56204 | 0.94476 | 33000 ft | 428 kts | 147° |
| 2026-05-04 13:56 | 49.51338 | 0.99794 | 33010 ft | 428 kts | 147° |
| 2026-05-04 13:57 | 49.44078 | 1.07712 | 33014 ft | 428 kts | 147° |
| 2026-05-04 13:58 | 49.34359 | 1.18257 | 33015 ft | 428 kts | 147° |
| 2026-05-04 13:58 | 49.27058 | 1.26143 | 33001 ft | 428 kts | 147° |
| 2026-05-04 13:59 | 49.22218 | 1.31348 | 32989 ft | 428 kts | 147° |
| 2026-05-04 14:00 | 49.14904 | 1.39197 | 32971 ft | 427 kts | 148° |
| 2026-05-04 14:00 | 49.07613 | 1.47003 | 32983 ft | 426 kts | 148° |
| 2026-05-04 14:01 | 49.02751 | 1.52191 | 32974 ft | 426 kts | 148° |
| 2026-05-04 14:02 | 48.95484 | 1.59913 | 32971 ft | 426 kts | 148° |
| 2026-05-04 14:02 | 48.90613 | 1.65083 | 32969 ft | 427 kts | 148° |
| 2026-05-04 14:03 | 48.85741 | 1.70229 | 32969 ft | 427 kts | 148° |
| 2026-05-04 14:03 | 48.80863 | 1.75368 | 32944 ft | 426 kts | 149° |
| 2026-05-04 14:04 | 48.73553 | 1.83052 | 32959 ft | 426 kts | 148° |
| 2026-05-04 14:04 | 48.68704 | 1.88139 | 32973 ft | 426 kts | 149° |
| 2026-05-04 14:05 | 48.61399 | 1.95776 | 32972 ft | 425 kts | 149° |
| 2026-05-04 14:06 | 48.56555 | 2.00830 | 32981 ft | 426 kts | 149° |
| 2026-05-04 14:06 | 48.51675 | 2.05902 | 32971 ft | 426 kts | 149° |
| 2026-05-04 14:07 | 48.46784 | 2.10980 | 32965 ft | 426 kts | 149° |
| 2026-05-04 14:07 | 48.41897 | 2.16041 | 32934 ft | 425 kts | 149° |
| 2026-05-04 14:08 | 48.37052 | 2.21035 | 32927 ft | 425 kts | 149° |
| 2026-05-04 14:08 | 48.32168 | 2.26055 | 32953 ft | 425 kts | 149° |
| 2026-05-04 14:09 | 48.24266 | 2.31631 | 32954 ft | 417 kts | 168° |
| 2026-05-04 14:10 | 48.15871 | 2.34953 | 32950 ft | 418 kts | 168° |
| 2026-05-04 14:10 | 48.10267 | 2.37312 | 32953 ft | 419 kts | 165° |
| 2026-05-04 14:11 | 48.04722 | 2.40112 | 32966 ft | 420 kts | 163° |
| 2026-05-04 14:11 | 47.96437 | 2.44417 | 32965 ft | 420 kts | 164° |
| 2026-05-04 14:12 | 47.90884 | 2.47164 | 32964 ft | 421 kts | 165° |
| 2026-05-04 14:13 | 47.84420 | 2.50331 | 32964 ft | 421 kts | 165° |
| 2026-05-04 14:13 | 47.77015 | 2.53975 | 32937 ft | 421 kts | 165° |
| 2026-05-04 14:14 | 47.71461 | 2.56695 | 32954 ft | 420 kts | 165° |
| 2026-05-04 14:14 | 47.63123 | 2.60779 | 32961 ft | 420 kts | 165° |
| 2026-05-04 14:15 | 47.52952 | 2.65749 | 32963 ft | 420 kts | 165° |
| 2026-05-04 14:16 | 47.43722 | 2.70234 | 32962 ft | 420 kts | 165° |
| 2026-05-04 14:17 | 47.35400 | 2.74264 | 32960 ft | 420 kts | 165° |
| 2026-05-04 14:18 | 47.27077 | 2.78267 | 32960 ft | 419 kts | 166° |
| 2026-05-04 14:19 | 47.17863 | 2.82724 | 32960 ft | 419 kts | 166° |
| 2026-05-04 14:19 | 47.11387 | 2.85837 | 32958 ft | 419 kts | 166° |
| 2026-05-04 14:20 | 47.05850 | 2.88483 | 32932 ft | 419 kts | 166° |
| 2026-05-04 14:20 | 47.00300 | 2.91122 | 32934 ft | 420 kts | 166° |
| 2026-05-04 14:21 | 46.91995 | 2.95068 | 32936 ft | 420 kts | 166° |
| 2026-05-04 14:21 | 46.86432 | 2.97710 | 32946 ft | 420 kts | 166° |
| 2026-05-04 14:22 | 46.82714 | 2.99483 | 32947 ft | 420 kts | 166° |
| 2026-05-04 14:22 | 46.77163 | 3.02119 | 32954 ft | 420 kts | 166° |
| 2026-05-04 14:23 | 46.66985 | 3.06910 | 32957 ft | 420 kts | 166° |
| 2026-05-04 14:24 | 46.61418 | 3.09519 | 32959 ft | 420 kts | 166° |
| 2026-05-04 14:24 | 46.55892 | 3.12111 | 32957 ft | 420 kts | 166° |
| 2026-05-04 14:25 | 46.50351 | 3.14840 | 32950 ft | 421 kts | 164° |
| 2026-05-04 14:25 | 46.42131 | 3.19382 | 32956 ft | 421 kts | 163° |
| 2026-05-04 14:26 | 46.21502 | 3.30463 | 32940 ft | 424 kts | 164° |
| 2026-05-04 14:26 | 45.99255 | 3.42285 | 32941 ft | 425 kts | 165° |
| 2026-05-04 14:27 | 45.76999 | 3.53272 | 32955 ft | 423 kts | 169° |
| 2026-05-04 14:27 | 45.54376 | 3.62838 | 32979 ft | 425 kts | 168° |
| 2026-05-04 14:28 | 45.31739 | 3.72487 | 32953 ft | 424 kts | 168° |
| 2026-05-04 14:28 | 45.22198 | 3.82795 | 33004 ft | 459 kts | 128° |
| 2026-05-04 14:28 | 45.15280 | 3.98066 | 33000 ft | 460 kts | 129° |
| 2026-05-04 14:29 | 45.00873 | 4.27823 | 32997 ft | 450 kts | 140° |
| 2026-05-04 14:29 | 44.83893 | 4.53888 | 33131 ft | 450 kts | 140° |
| 2026-05-04 14:30 | 44.69866 | 4.75181 | 33047 ft | 454 kts | 139° |
| 2026-05-04 14:31 | 44.57069 | 4.94998 | 33048 ft | 459 kts | 137° |
| 2026-05-04 14:31 | 44.48242 | 5.07653 | 32980 ft | 444 kts | 154° |
| 2026-05-04 14:32 | 44.37237 | 5.15015 | 32994 ft | 439 kts | 161° |
| 2026-05-04 14:32 | 44.26126 | 5.22169 | 33006 ft | 440 kts | 162° |
| 2026-05-04 14:33 | 44.15002 | 5.29266 | 33014 ft | 440 kts | 162° |
| 2026-05-04 14:33 | 44.09280 | 5.32901 | 33001 ft | 440 kts | 162° |
| 2026-05-04 14:34 | 44.03720 | 5.36424 | 33003 ft | 439 kts | 162° |
| 2026-05-04 14:34 | 43.98317 | 5.40498 | 32177 ft | 453 kts | 149° |
| 2026-05-04 14:34 | 43.95984 | 5.43448 | 31305 ft | 465 kts | 138° |
| 2026-05-04 14:35 | 43.93973 | 5.47003 | 30507 ft | 470 kts | 132° |
| 2026-05-04 14:35 | 43.92034 | 5.50658 | 29637 ft | 470 kts | 132° |
| 2026-05-04 14:35 | 43.90082 | 5.54293 | 28817 ft | 469 kts | 132° |
| 2026-05-04 14:35 | 43.88117 | 5.57914 | 27998 ft | 471 kts | 133° |
| 2026-05-04 14:36 | 43.86137 | 5.61544 | 27176 ft | 473 kts | 133° |
| 2026-05-04 14:36 | 43.84154 | 5.65183 | 26359 ft | 471 kts | 132° |
| 2026-05-04 14:36 | 43.82192 | 5.68791 | 25541 ft | 468 kts | 132° |
| 2026-05-04 14:36 | 43.80242 | 5.72383 | 24715 ft | 465 kts | 131° |
| 2026-05-04 14:37 | 43.78300 | 5.75955 | 23916 ft | 464 kts | 131° |
| 2026-05-04 14:37 | 43.76360 | 5.79512 | 23038 ft | 464 kts | 131° |
| 2026-05-04 14:37 | 43.74414 | 5.83076 | 22230 ft | 461 kts | 131° |
| 2026-05-04 14:37 | 43.72481 | 5.86614 | 21427 ft | 459 kts | 131° |
| 2026-05-04 14:38 | 43.70592 | 5.90064 | 20698 ft | 453 kts | 130° |
| 2026-05-04 14:38 | 43.68706 | 5.93513 | 19910 ft | 448 kts | 130° |
| 2026-05-04 14:38 | 43.66836 | 5.96927 | 19272 ft | 440 kts | 130° |
| 2026-05-04 14:38 | 43.65004 | 6.00266 | 18542 ft | 434 kts | 130° |
| 2026-05-04 14:39 | 43.63187 | 6.03566 | 17771 ft | 428 kts | 131° |
| 2026-05-04 14:39 | 43.61395 | 6.06819 | 16984 ft | 423 kts | 130° |
| 2026-05-04 14:39 | 43.59744 | 6.10167 | 16248 ft | 422 kts | 122° |
| 2026-05-04 14:40 | 43.57523 | 6.17649 | 14888 ft | 419 kts | 114° |
| 2026-05-04 14:40 | 43.56502 | 6.21393 | 14341 ft | 415 kts | 114° |
| 2026-05-04 14:40 | 43.55510 | 6.25017 | 14192 ft | 402 kts | 114° |
| 2026-05-04 14:40 | 43.54529 | 6.28563 | 13867 ft | 391 kts | 114° |
| 2026-05-04 14:41 | 43.53579 | 6.31992 | 13724 ft | 374 kts | 114° |
| 2026-05-04 14:41 | 43.52127 | 6.37217 | 13500 ft | 351 kts | 114° |
| 2026-05-04 14:41 | 43.47502 | 6.47607 | 12881 ft | 300 kts | 137° |
| 2026-05-04 14:42 | 43.43726 | 6.53034 | 11996 ft | 295 kts | 137° |
| 2026-05-04 14:42 | 43.42301 | 6.55083 | 11320 ft | 300 kts | 136° |
| 2026-05-04 14:42 | 43.40827 | 6.57198 | 10266 ft | 311 kts | 136° |
| 2026-05-04 14:43 | 43.39325 | 6.59340 | 9322 ft | 313 kts | 136° |
| 2026-05-04 14:43 | 43.37808 | 6.61452 | 8653 ft | 305 kts | 136° |
| 2026-05-04 14:43 | 43.36380 | 6.63459 | 8505 ft | 281 kts | 136° |
| 2026-05-04 14:43 | 43.35047 | 6.65328 | 8164 ft | 268 kts | 136° |
| 2026-05-04 14:44 | 43.33768 | 6.67107 | 7639 ft | 263 kts | 136° |
| 2026-05-04 14:44 | 43.32640 | 6.69070 | 7040 ft | 262 kts | 118° |
| 2026-05-04 14:44 | 43.31914 | 6.71362 | 6495 ft | 262 kts | 113° |
| 2026-05-04 14:44 | 43.31492 | 6.73774 | 6188 ft | 262 kts | 92° |
| 2026-05-04 14:45 | 43.31873 | 6.76226 | 6043 ft | 265 kts | 73° |
| 2026-05-04 14:45 | 43.32873 | 6.78362 | 6047 ft | 273 kts | 46° |
| 2026-05-04 14:45 | 43.34382 | 6.79988 | 6044 ft | 276 kts | 39° |
| 2026-05-04 14:45 | 43.35922 | 6.81487 | 5914 ft | 266 kts | 38° |
| 2026-05-04 14:46 | 43.37419 | 6.82904 | 5783 ft | 257 kts | 38° |
| 2026-05-04 14:46 | 43.38906 | 6.84194 | 5668 ft | 247 kts | 34° |
| 2026-05-04 14:46 | 43.40366 | 6.85351 | 5509 ft | 237 kts | 33° |
| 2026-05-04 14:46 | 43.41784 | 6.86466 | 5264 ft | 232 kts | 33° |
| 2026-05-04 14:47 | 43.43228 | 6.87373 | 5133 ft | 224 kts | 24° |
| 2026-05-04 14:47 | 43.44639 | 6.88093 | 5035 ft | 214 kts | 24° |
| 2026-05-04 14:47 | 43.45803 | 6.89178 | 4996 ft | 194 kts | 61° |
| 2026-05-04 14:47 | 43.46219 | 6.90908 | 5028 ft | 192 kts | 81° |
| 2026-05-04 14:48 | 43.46550 | 6.92681 | 5005 ft | 196 kts | 76° |
| 2026-05-04 14:48 | 43.46926 | 6.94473 | 4998 ft | 190 kts | 69° |
| 2026-05-04 14:48 | 43.47561 | 6.96002 | 4875 ft | 181 kts | 57° |
| 2026-05-04 14:48 | 43.48371 | 6.97310 | 4657 ft | 179 kts | 51° |
| 2026-05-04 14:49 | 43.49242 | 6.98561 | 4402 ft | 181 kts | 50° |
| 2026-05-04 14:49 | 43.50126 | 6.99784 | 4176 ft | 179 kts | 49° |
| 2026-05-04 14:49 | 43.51001 | 7.00983 | 3934 ft | 176 kts | 50° |
| 2026-05-04 14:49 | 43.51856 | 7.02151 | 3705 ft | 170 kts | 47° |
| 2026-05-04 14:50 | 43.52670 | 7.03262 | 3491 ft | 161 kts | 49° |
| 2026-05-04 14:50 | 43.53451 | 7.04329 | 3285 ft | 156 kts | 49° |
| 2026-05-04 14:50 | 43.54211 | 7.05369 | 3076 ft | 154 kts | 49° |
| 2026-05-04 14:50 | 43.54965 | 7.06399 | 2876 ft | 152 kts | 50° |
| 2026-05-04 14:51 | 43.55699 | 7.07403 | 2673 ft | 151 kts | 49° |
| 2026-05-04 14:51 | 43.56461 | 7.08448 | 2470 ft | 157 kts | 49° |
| 2026-05-04 14:51 | 43.57242 | 7.09517 | 2256 ft | 159 kts | 50° |
| 2026-05-04 14:51 | 43.58020 | 7.10581 | 2038 ft | 156 kts | 49° |
| 2026-05-04 14:52 | 43.58787 | 7.11631 | 1828 ft | 155 kts | 49° |
| 2026-05-04 14:52 | 43.59545 | 7.12668 | 1624 ft | 151 kts | 49° |
| 2026-05-04 14:52 | 43.60255 | 7.13639 | 1438 ft | 140 kts | 50° |
| 2026-05-04 14:52 | 43.60929 | 7.14565 | 1226 ft | 138 kts | 52° |
| 2026-05-04 14:53 | 43.61612 | 7.15502 | 1042 ft | 137 kts | 52° |
| 2026-05-04 14:53 | 43.62284 | 7.16425 | 847 ft | 138 kts | 50° |
| 2026-05-04 14:53 | 43.62959 | 7.17350 | 685 ft | 136 kts | 49° |
| 2026-05-04 14:53 | 43.63647 | 7.18283 | 489 ft | 139 kts | 50° |
| 2026-05-04 14:54 | 43.64328 | 7.19215 | 377 ft | 137 kts | 52° |
| 2026-05-04 14:54 | 43.64988 | 7.20137 | 157 ft | 135 kts | 51° |
| 2026-05-04 14:54 | 43.65637 | 7.21029 | 25 ft | 117 kts | 48° |
| 2026-05-04 14:54 | 43.66094 | 7.21662 | 21 ft | 68 kts | 45° |
| 2026-05-04 14:55 | 43.66301 | 7.21941 | 24 ft | 20 kts | 34° |
| 2026-05-04 14:55 | 43.66396 | 7.22005 | 25 ft | 14 kts | 24° |
| 2026-05-04 14:55 | 43.66478 | 7.22047 | 22 ft | 8 kts | 17° |
| 2026-05-04 14:55 | 43.66491 | 7.22053 | 22 ft | 0 kts | 17° |
| 2026-05-04 14:56 | 43.66517 | 7.22059 | 22 ft | 8 kts | 1° |
| 2026-05-04 14:56 | 43.66563 | 7.22016 | 22 ft | 9 kts | 316° |
| 2026-05-04 14:57 | 43.66626 | 7.21931 | 22 ft | 15 kts | 313° |
| 2026-05-04 14:57 | 43.66622 | 7.21823 | 23 ft | 13 kts | 224° |
| 2026-05-04 14:57 | 43.66547 | 7.21721 | 22 ft | 17 kts | 225° |
| 2026-05-04 14:57 | 43.66452 | 7.21588 | 22 ft | 16 kts | 225° |
| 2026-05-04 14:58 | 43.66419 | 7.21543 | 22 ft | 0 kts | 224° |
| 2026-05-04 14:58 | 43.66399 | 7.21516 | 22 ft | 8 kts | 224° |
| 2026-05-04 14:58 | 43.66357 | 7.21453 | 22 ft | 9 kts | 244° |
| 2026-05-04 14:59 | 43.66344 | 7.21391 | 24 ft | 0 kts | 256° |
| 2026-05-04 14:59 | 43.66344 | 7.21392 | 53 ft | 3 kts | 253° |
| 2026-05-04 14:59 | 43.66342 | 7.21389 | 22 ft | 1 kts | 254° |
| 2026-05-04 15:00 | 43.66341 | 7.21372 | 22 ft | 0 kts | 265° |
| 2026-05-04 15:00 | 43.66342 | 7.21359 | 22 ft | 3 kts | 279° |
| 2026-05-04 15:00 | 43.66368 | 7.21345 | 22 ft | 4 kts | 347° |
| 2026-05-04 15:01 | 43.66406 | 7.21326 | 22 ft | 2 kts | 341° |
| 2026-05-04 15:01 | 43.66421 | 7.21327 | 22 ft | 2 kts | 6° |
| 2026-05-04 15:01 | 43.66425 | 7.21328 | 22 ft | 0 kts | 9° |